logo
Search for airport 
image banner adimage banner adimage banner ad
image banner ad

EPSD - Szczecin Dabie

Located in Szczecin, Poland

ICAO - EPSD, IATA -

Data provided by Airmate  

General information

Coordinates: N53°23'26" E14°37'56"
Elevation is 3 feet MSL.
Magnetic variation is 4.0000° East
View others Airports in West Pomerania

Operational data

Special qualification required
Current time UTC:
Current local time:
Weather at : EPSC - Szczecin/Goleniow ( 28 km )
METAR: EPSC 161900Z 12005KT 9999 FEW050TCU 18/17 Q1011
TAF: TAF EPSC 161730Z 1618/1718 25007KT CAVOK TEMPO 1618/1624 25020G30KT 3000 TSRA SCT050CB TEMPO 1712/1718 SCT030TCU
View NOTAMs / SUP AIP / TFR affecting this airport [VIEW]
Communications frequencies: [VIEW]

Runways:

RWY identifierQFULength (ft)Width (ft)SurfaceLDA (ft)
0994°3281164GRASS3281
27274°3281164GRASS3281

Airport contact information

Address: Szczecin Poland

Other aviation service providers

Aviation club (not for profit)

Aeroklub Szczeciński

Aeroklub Szczeciński

Satellite view of EPSD